Pagina principale
METAR-TAF:

METAR-TAF

Aeroporti :

Alpnach, Svizzera

latitudine: 46-56-19N, longitudine: 8-17-03E, altezza: 440 m

Osservazione

Il bollettino è stato emesso 18 minuti fa, alle 15:50 UTC
Vento 11 kt da est/nord-est con raffiche fino a 24 kt
Temperature 21°C
Umidità 40%
Pressione 1022 hPa
Visibilità 10 km o più

METAR: LSMA 231550Z AUTO 06011G24KT 9999NDV NCD 21/07 Q1022 RMK

Ora: 18:08 (16:08 UTC)


TAF: mancante

Osservazioni e previsioni meteorologiche di più di 4000 aeroporti (messaggi METAR e TAF).

Le stazioni disponibili sono rappresentate dai dischi gialli e rossi sulla carta.

Puntare il mouse per vedere il nome della stazione.

Clicca sopra per visualizzare le osservazioni e previsioni meteorologiche.

Per cambiare la mappa : fare clic sui pulsanti verdi con una croce nera per ingrandire, il pulsante verde con un trattino per diminuire, o sulla freccia verde per le mappe adiacenti.


METAR-TAF: